Time;durP1;ratioP1;P1;durP2;ratioP2;P2;SDS_P1;SDS_P2;PMS_P1;PMS_P2;Temp;Humidity;BMP_temperature;BMP_pressure;BME280_temperature;BME280_humidity;BME280_pressure;Samples;Min_cycle;Max_cycle;Signal;HPM_P1;HPM_P2
2020/12/10 00:00:51;;;;;;;24.30;15.50;;;;;;;;;;5029847;28;20490;-50
2020/12/10 00:03:17;;;;;;;25.27;17.15;;;;;;;;;;5014272;28;20478;-50
2020/12/10 00:05:43;;;;;;;22.85;14.30;;;;;;;;;;5013621;28;20485;-50
2020/12/10 00:08:09;;;;;;;35.33;19.75;;;;;;;;;;5013901;28;20026;-50
2020/12/10 00:10:35;;;;;;;24.58;15.40;;;;;;;;;;5014174;28;20144;-49
2020/12/10 00:13:01;;;;;;;23.00;13.98;;;;;;;;;;5014690;28;20417;-51
2020/12/10 00:15:27;;;;;;;21.65;14.10;;;;;;;;;;5014728;28;20022;-51
2020/12/10 00:17:53;;;;;;;19.77;13.70;;;;;;;;;;5014289;28;20038;-50
2020/12/10 00:20:20;;;;;;;24.95;15.63;;;;;;;;;;5012578;28;20032;-49
2020/12/10 00:22:46;;;;;;;28.08;16.55;;;;;;;;;;5013747;28;20473;-50
2020/12/10 00:25:12;;;;;;;24.42;15.52;;;;;;;;;;5013873;28;20029;-50
2020/12/10 00:27:38;;;;;;;25.40;15.20;;;;;;;;;;5014516;28;20029;-50
2020/12/10 00:30:08;;;;;;;30.85;17.77;;;;;;;;;;5013760;28;20038;-49
2020/12/10 00:32:34;;;;;;;37.92;20.67;;;;;;;;;;5014513;28;20473;-51
2020/12/10 00:35:00;;;;;;;29.98;16.00;;;;;;;;;;5013829;28;20064;-52
2020/12/10 00:37:29;;;;;;;23.25;14.32;;;;;;;;;;5014383;28;20056;-51
2020/12/10 00:39:56;;;;;;;19.77;13.02;;;;;;;;;;5013787;28;20382;-51
2020/12/10 00:42:22;;;;;;;21.52;13.73;;;;;;;;;;5014302;28;20061;-50
2020/12/10 00:44:48;;;;;;;26.33;16.23;;;;;;;;;;5013986;28;20026;-49
2020/12/10 00:47:18;;;;;;;23.48;15.23;;;;;;;;;;5013841;28;20034;-50
2020/12/10 00:49:44;;;;;;;24.60;13.90;;;;;;;;;;5012643;28;20402;-52
2020/12/10 00:52:10;;;;;;;22.70;13.55;;;;;;;;;;5009717;28;20569;-49
2020/12/10 00:54:36;;;;;;;22.50;14.35;;;;;;;;;;5009099;28;20037;-50
2020/12/10 00:57:03;;;;;;;21.02;13.52;;;;;;;;;;5013858;28;20037;-53
2020/12/10 00:59:29;;;;;;;22.75;14.00;;;;;;;;;;5013952;28;20022;-50
2020/12/10 01:01:55;;;;;;;22.08;13.02;;;;;;;;;;5013491;28;20030;-50
2020/12/10 01:04:21;;;;;;;20.23;12.88;;;;;;;;;;5012907;28;20041;-50
2020/12/10 01:06:47;;;;;;;20.05;13.07;;;;;;;;;;5013340;28;20025;-51
2020/12/10 01:09:13;;;;;;;20.98;12.70;;;;;;;;;;5012838;28;20073;-50
2020/12/10 01:11:39;;;;;;;18.40;11.38;;;;;;;;;;5012872;28;20026;-50
2020/12/10 01:14:05;;;;;;;19.95;12.38;;;;;;;;;;5013221;28;20018;-51
2020/12/10 01:16:31;;;;;;;17.02;10.93;;;;;;;;;;5012182;28;20117;-51
2020/12/10 01:18:57;;;;;;;19.40;11.60;;;;;;;;;;5011822;28;20038;-51
2020/12/10 01:21:27;;;;;;;20.98;12.82;;;;;;;;;;5013254;28;21047;-50
2020/12/10 01:23:53;;;;;;;16.35;9.90;;;;;;;;;;5012919;28;20044;-51
2020/12/10 01:26:19;;;;;;;15.48;9.70;;;;;;;;;;5013149;28;20473;-51
2020/12/10 01:28:45;;;;;;;14.68;9.43;;;;;;;;;;5009315;28;20037;-49
2020/12/10 01:31:14;;;;;;;12.50;8.93;;;;;;;;;;5011514;28;20497;-53
2020/12/10 01:33:40;;;;;;;13.70;9.23;;;;;;;;;;5013234;28;20029;-51
2020/12/10 01:36:06;;;;;;;12.35;8.65;;;;;;;;;;5013148;28;20026;-51
2020/12/10 01:38:32;;;;;;;15.00;9.63;;;;;;;;;;5013034;28;20402;-50
2020/12/10 01:40:58;;;;;;;12.35;8.50;;;;;;;;;;5012842;28;20026;-51
2020/12/10 01:43:24;;;;;;;13.65;8.65;;;;;;;;;;5013076;28;20044;-50
2020/12/10 01:45:50;;;;;;;12.68;8.43;;;;;;;;;;5012852;28;20465;-53
2020/12/10 01:48:16;;;;;;;12.90;8.57;;;;;;;;;;5012681;28;20508;-52
2020/12/10 01:50:42;;;;;;;14.02;8.35;;;;;;;;;;5012768;28;20378;-50
2020/12/10 01:53:09;;;;;;;13.05;9.00;;;;;;;;;;5011393;28;20511;-52
2020/12/10 01:55:35;;;;;;;12.68;8.68;;;;;;;;;;5012666;28;20478;-53
2020/12/10 01:58:01;;;;;;;14.20;8.35;;;;;;;;;;5012431;28;20050;-52
2020/12/10 02:00:27;;;;;;;14.55;9.43;;;;;;;;;;5012600;28;20018;-52
2020/12/10 02:02:57;;;;;;;13.80;8.68;;;;;;;;;;5012380;28;20433;-50
2020/12/10 02:05:23;;;;;;;15.95;10.27;;;;;;;;;;5012302;28;20033;-52
2020/12/10 02:07:49;;;;;;;17.35;10.95;;;;;;;;;;5011470;28;20065;-49
2020/12/10 02:10:16;;;;;;;16.33;10.65;;;;;;;;;;5011713;28;20049;-51
2020/12/10 02:12:42;;;;;;;18.45;11.75;;;;;;;;;;5011158;28;20091;-49
2020/12/10 02:15:08;;;;;;;16.95;11.07;;;;;;;;;;5011797;28;20053;-49
2020/12/10 02:17:35;;;;;;;18.83;12.02;;;;;;;;;;5011781;28;20078;-51
2020/12/10 02:20:01;;;;;;;17.63;10.90;;;;;;;;;;5011828;28;20030;-50
2020/12/10 02:22:27;;;;;;;15.88;9.77;;;;;;;;;;5011595;28;20076;-50
2020/12/10 02:24:53;;;;;;;14.45;9.68;;;;;;;;;;5011606;28;20452;-51
2020/12/10 02:27:19;;;;;;;17.63;12.00;;;;;;;;;;5011102;28;20021;-49
2020/12/10 02:29:45;;;;;;;14.85;9.80;;;;;;;;;;5011304;28;20030;-49
2020/12/10 02:32:11;;;;;;;16.83;10.88;;;;;;;;;;5011816;28;20108;-52
2020/12/10 02:34:37;;;;;;;20.40;12.43;;;;;;;;;;5012148;28;20097;-51
2020/12/10 02:37:03;;;;;;;28.00;16.48;;;;;;;;;;5011922;28;20038;-50
2020/12/10 02:39:29;;;;;;;16.50;10.27;;;;;;;;;;5011284;28;20034;-50
2020/12/10 02:41:55;;;;;;;18.35;11.30;;;;;;;;;;5011962;28;20033;-51
2020/12/10 02:44:21;;;;;;;19.50;11.55;;;;;;;;;;5011859;28;20022;-49
2020/12/10 02:46:47;;;;;;;32.17;19.05;;;;;;;;;;5011782;28;20034;-49
2020/12/10 02:49:13;;;;;;;21.02;13.25;;;;;;;;;;5011880;28;20030;-50
2020/12/10 02:51:43;;;;;;;97.95;53.25;;;;;;;;;;5011869;28;20022;-51
2020/12/10 02:54:09;;;;;;;64.63;34.25;;;;;;;;;;5011858;28;20085;-52
2020/12/10 02:56:35;;;;;;;30.10;17.95;;;;;;;;;;5012017;28;20022;-52
2020/12/10 02:59:01;;;;;;;19.35;12.15;;;;;;;;;;5011902;28;20109;-51
2020/12/10 03:01:27;;;;;;;22.55;13.98;;;;;;;;;;5012341;28;20026;-51
2020/12/10 03:03:53;;;;;;;22.00;13.85;;;;;;;;;;5011818;28;20026;-51
2020/12/10 03:06:19;;;;;;;23.45;15.13;;;;;;;;;;5012079;28;20041;-52
2020/12/10 03:08:45;;;;;;;26.77;16.55;;;;;;;;;;5011583;28;20022;-51
2020/12/10 03:11:11;;;;;;;23.73;14.68;;;;;;;;;;5011785;28;20056;-52
2020/12/10 03:13:38;;;;;;;27.08;16.95;;;;;;;;;;5011787;28;20109;-50
2020/12/10 03:16:05;;;;;;;30.75;18.63;;;;;;;;;;5011981;28;20025;-52
2020/12/10 03:18:31;;;;;;;31.80;20.10;;;;;;;;;;5011147;28;20410;-52
2020/12/10 03:20:57;;;;;;;29.67;19.20;;;;;;;;;;5011862;28;20033;-52
2020/12/10 03:23:23;;;;;;;32.58;19.25;;;;;;;;;;5011947;28;20033;-51
2020/12/10 03:25:49;;;;;;;32.03;19.52;;;;;;;;;;5011845;28;20030;-52
2020/12/10 03:28:16;;;;;;;35.90;23.10;;;;;;;;;;5011929;28;20038;-52
2020/12/10 03:30:42;;;;;;;33.38;21.92;;;;;;;;;;5011887;28;20026;-52
2020/12/10 03:33:08;;;;;;;32.58;20.80;;;;;;;;;;5011925;28;20033;-53
2020/12/10 03:35:34;;;;;;;29.80;18.70;;;;;;;;;;5011930;28;20030;-50
2020/12/10 03:38:00;;;;;;;31.38;18.85;;;;;;;;;;5011726;28;20042;-52
2020/12/10 03:40:26;;;;;;;29.77;18.73;;;;;;;;;;5014709;28;20026;-52
2020/12/10 03:42:52;;;;;;;28.20;18.70;;;;;;;;;;5015381;28;20057;-51
2020/12/10 03:45:18;;;;;;;33.45;20.00;;;;;;;;;;5015556;28;20026;-52
2020/12/10 03:47:45;;;;;;;32.67;20.48;;;;;;;;;;5015439;28;20026;-50
2020/12/10 03:50:11;;;;;;;35.70;21.55;;;;;;;;;;5015381;28;20080;-52
2020/12/10 03:52:37;;;;;;;40.20;23.77;;;;;;;;;;5015488;28;20021;-52
2020/12/10 03:55:03;;;;;;;41.90;23.80;;;;;;;;;;5015269;28;20385;-50
2020/12/10 03:57:29;;;;;;;38.65;23.77;;;;;;;;;;5015369;28;20084;-53
2020/12/10 03:59:55;;;;;;;36.90;23.92;;;;;;;;;;5015154;28;20029;-53
2020/12/10 04:02:21;;;;;;;55.80;33.22;;;;;;;;;;5015295;28;20026;-53
2020/12/10 04:04:49;;;;;;;39.78;24.10;;;;;;;;;;5014840;28;20033;-53
2020/12/10 04:07:15;;;;;;;39.53;22.98;;;;;;;;;;5015361;28;20115;-50
2020/12/10 04:09:41;;;;;;;35.72;21.27;;;;;;;;;;5014562;28;20058;-50
2020/12/10 04:12:07;;;;;;;35.33;21.55;;;;;;;;;;5015081;28;20048;-52
2020/12/10 04:14:34;;;;;;;33.45;20.40;;;;;;;;;;5014727;28;20045;-51
2020/12/10 04:17:00;;;;;;;33.63;19.77;;;;;;;;;;5015139;28;20412;-52
2020/12/10 04:19:26;;;;;;;33.90;20.33;;;;;;;;;;5014933;28;20026;-51
2020/12/10 04:21:52;;;;;;;31.33;19.63;;;;;;;;;;5014785;28;20026;-51
2020/12/10 04:24:18;;;;;;;29.50;18.65;;;;;;;;;;5014666;28;20101;-53
2020/12/10 04:26:44;;;;;;;32.30;19.55;;;;;;;;;;5014764;28;20030;-52
2020/12/10 04:29:13;;;;;;;27.85;18.40;;;;;;;;;;5014605;28;20028;-52
2020/12/10 04:31:39;;;;;;;28.83;18.77;;;;;;;;;;5014738;28;20022;-53
2020/12/10 04:34:05;;;;;;;29.73;18.35;;;;;;;;;;5014610;28;20057;-53
2020/12/10 04:36:32;;;;;;;29.50;18.23;;;;;;;;;;5014613;28;20466;-52
2020/12/10 04:38:58;;;;;;;31.13;20.08;;;;;;;;;;5014512;28;20033;-53
2020/12/10 04:41:25;;;;;;;49.90;30.95;;;;;;;;;;5014264;28;20029;-52
2020/12/10 04:43:53;;;;;;;36.55;23.25;;;;;;;;;;5014154;28;20037;-51
2020/12/10 04:46:19;;;;;;;29.17;19.63;;;;;;;;;;5014447;28;20389;-53
2020/12/10 04:48:47;;;;;;;28.33;18.65;;;;;;;;;;5014470;28;20017;-50
2020/12/10 04:51:14;;;;;;;29.55;19.58;;;;;;;;;;5013213;28;20539;-51
2020/12/10 04:53:40;;;;;;;29.95;20.30;;;;;;;;;;5014463;28;20083;-51
2020/12/10 04:56:06;;;;;;;32.00;20.30;;;;;;;;;;5013928;28;20029;-50
2020/12/10 04:58:33;;;;;;;30.02;19.65;;;;;;;;;;5013911;28;20034;-52
2020/12/10 05:01:01;;;;;;;32.63;18.67;;;;;;;;;;5014132;28;20045;-52
2020/12/10 05:03:27;;;;;;;30.23;18.40;;;;;;;;;;5014024;28;20028;-51
2020/12/10 05:05:53;;;;;;;25.95;17.42;;;;;;;;;;5013701;28;20474;-53
2020/12/10 05:08:31;;;;;;;28.65;17.83;;;;;;;;;;5013864;28;20458;-52
2020/12/10 05:10:59;;;;;;;30.65;18.33;;;;;;;;;;5013464;28;20045;-51
2020/12/10 05:13:25;;;;;;;30.80;18.80;;;;;;;;;;5013447;28;20458;-52
2020/12/10 05:15:52;;;;;;;36.90;22.40;;;;;;;;;;5013561;28;20413;-51
2020/12/10 05:18:18;;;;;;;39.47;23.60;;;;;;;;;;5013360;28;20073;-52
2020/12/10 05:20:44;;;;;;;43.60;26.17;;;;;;;;;;5012782;28;20026;-49
2020/12/10 05:23:11;;;;;;;53.85;30.98;;;;;;;;;;5013236;28;20056;-51
2020/12/10 05:25:53;;;;;;;45.97;27.85;;;;;;;;;;5011789;28;20022;-52
2020/12/10 05:28:20;;;;;;;42.58;25.40;;;;;;;;;;5012984;28;20026;-51
2020/12/10 05:31:00;;;;;;;34.65;21.60;;;;;;;;;;5012914;28;20030;-50
2020/12/10 05:33:26;;;;;;;36.33;21.55;;;;;;;;;;5013043;28;20041;-51
2020/12/10 05:36:03;;;;;;;38.63;23.08;;;;;;;;;;5012581;28;20112;-51
2020/12/10 05:38:29;;;;;;;38.13;25.85;;;;;;;;;;5012896;28;20048;-52
2020/12/10 05:40:55;;;;;;;35.22;23.25;;;;;;;;;;5013122;28;20109;-49
2020/12/10 05:43:24;;;;;;;30.45;19.30;;;;;;;;;;5012889;28;20050;-51
2020/12/10 05:45:52;;;;;;;32.92;20.27;;;;;;;;;;5012315;28;20022;-51
2020/12/10 05:48:20;;;;;;;36.78;23.10;;;;;;;;;;5012996;28;20048;-50
2020/12/10 05:50:47;;;;;;;52.65;31.00;;;;;;;;;;5012922;28;20018;-51
2020/12/10 05:53:14;;;;;;;92.88;51.85;;;;;;;;;;5012901;28;20473;-50
2020/12/10 05:55:41;;;;;;;100.05;57.75;;;;;;;;;;5012909;28;20029;-51
2020/12/10 05:58:07;;;;;;;140.50;80.07;;;;;;;;;;5013092;28;20045;-50
2020/12/10 06:00:34;;;;;;;157.98;88.55;;;;;;;;;;5012480;28;20059;-52
2020/12/10 06:03:00;;;;;;;146.82;80.57;;;;;;;;;;5011907;28;20030;-53
2020/12/10 06:05:27;;;;;;;122.93;68.25;;;;;;;;;;5012629;28;20022;-53
2020/12/10 06:07:59;;;;;;;116.25;65.72;;;;;;;;;;5012458;28;20030;-53
2020/12/10 06:10:26;;;;;;;102.18;58.67;;;;;;;;;;5012644;28;20053;-53
2020/12/10 06:12:52;;;;;;;96.00;54.97;;;;;;;;;;5012475;28;20017;-53
2020/12/10 06:15:25;;;;;;;87.63;51.63;;;;;;;;;;5012699;28;20403;-53
2020/12/10 06:18:03;;;;;;;98.53;56.63;;;;;;;;;;5012237;28;20033;-53
2020/12/10 06:20:48;;;;;;;92.63;52.97;;;;;;;;;;5012839;28;20382;-53
2020/12/10 06:23:27;;;;;;;77.18;45.20;;;;;;;;;;5012473;28;20533;-52
2020/12/10 06:25:54;;;;;;;82.13;49.88;;;;;;;;;;5012511;28;20405;-53
2020/12/10 06:28:21;;;;;;;77.43;46.25;;;;;;;;;;5012309;28;20033;-53
2020/12/10 06:31:06;;;;;;;149.73;84.88;;;;;;;;;;5012676;28;20087;-53
2020/12/10 06:33:42;;;;;;;164.38;95.75;;;;;;;;;;4999811;28;20029;-53
2020/12/10 06:36:20;;;;;;;103.75;59.90;;;;;;;;;;5012372;28;20045;-52
2020/12/10 06:38:46;;;;;;;133.68;66.95;;;;;;;;;;5012376;28;20042;-53
2020/12/10 06:41:12;;;;;;;112.38;60.38;;;;;;;;;;5012461;28;20508;-53
2020/12/10 06:43:38;;;;;;;128.98;72.20;;;;;;;;;;5012592;28;20030;-52
2020/12/10 06:46:05;;;;;;;118.53;64.95;;;;;;;;;;5012883;28;20022;-53
2020/12/10 06:48:41;;;;;;;69.82;39.95;;;;;;;;;;5012425;28;20110;-54
2020/12/10 06:51:13;;;;;;;131.75;71.72;;;;;;;;;;5012559;28;20026;-54
2020/12/10 06:53:40;;;;;;;147.85;88.57;;;;;;;;;;5012330;28;20018;-54
2020/12/10 06:56:12;;;;;;;127.28;77.55;;;;;;;;;;5012484;28;20026;-53
2020/12/10 06:58:39;;;;;;;180.15;105.97;;;;;;;;;;5012308;28;20034;-53
2020/12/10 07:01:21;;;;;;;143.00;85.90;;;;;;;;;;5012374;28;20125;-53
2020/12/10 07:03:48;;;;;;;135.75;80.55;;;;;;;;;;5012276;28;20018;-52
2020/12/10 07:06:21;;;;;;;150.93;96.55;;;;;;;;;;5012113;28;20095;-52
2020/12/10 07:09:06;;;;;;;91.28;51.75;;;;;;;;;;5010976;28;20026;-52
2020/12/10 07:11:33;;;;;;;81.43;48.33;;;;;;;;;;5012420;28;20501;-53
2020/12/10 07:14:00;;;;;;;67.18;48.28;;;;;;;;;;5013000;28;20025;-53
2020/12/10 07:16:30;;;;;;;42.63;29.40;;;;;;;;;;5016223;28;20026;-53
2020/12/10 07:18:56;;;;;;;48.00;31.30;;;;;;;;;;5013328;28;20030;-53
2020/12/10 07:21:23;;;;;;;36.92;23.85;;;;;;;;;;5005006;28;20461;-53
2020/12/10 07:23:50;;;;;;;41.25;25.60;;;;;;;;;;5015848;28;20487;-53
2020/12/10 07:26:16;;;;;;;46.03;26.73;;;;;;;;;;5015973;28;20099;-52
2020/12/10 07:28:42;;;;;;;52.45;32.15;;;;;;;;;;5016012;28;20022;-53
2020/12/10 07:31:18;;;;;;;67.70;40.75;;;;;;;;;;5015738;28;20569;-53
2020/12/10 07:33:45;;;;;;;122.07;70.25;;;;;;;;;;5014868;28;20544;-53
2020/12/10 07:36:11;;;;;;;133.93;82.00;;;;;;;;;;5014755;28;20033;-53
2020/12/10 07:38:37;;;;;;;133.93;77.93;;;;;;;;;;5015352;28;20036;-52
2020/12/10 07:41:06;;;;;;;169.88;94.03;;;;;;;;;;5015764;28;20527;-50
2020/12/10 07:43:32;;;;;;;213.85;112.22;;;;;;;;;;5015580;28;20113;-52
2020/12/10 07:45:58;;;;;;;178.98;99.30;;;;;;;;;;5015845;28;20049;-52
2020/12/10 07:48:24;;;;;;;159.18;82.88;;;;;;;;;;5013960;28;20540;-53
2020/12/10 07:50:50;;;;;;;149.90;75.78;;;;;;;;;;5015636;28;20026;-53
2020/12/10 07:53:17;;;;;;;128.68;66.43;;;;;;;;;;5014998;28;20049;-54
2020/12/10 07:55:58;;;;;;;104.93;58.50;;;;;;;;;;5015446;28;20029;-50
2020/12/10 07:58:38;;;;;;;89.63;52.15;;;;;;;;;;5003627;28;20053;-53
2020/12/10 08:01:06;;;;;;;81.90;48.17;;;;;;;;;;5015210;28;20520;-52
2020/12/10 08:03:34;;;;;;;89.75;53.13;;;;;;;;;;5015264;28;20025;-52
2020/12/10 08:06:08;;;;;;;92.30;56.05;;;;;;;;;;5014740;28;20026;-50
2020/12/10 08:08:37;;;;;;;96.32;56.67;;;;;;;;;;5015094;28;20105;-53
2020/12/10 08:11:16;;;;;;;84.70;51.25;;;;;;;;;;5014688;28;20402;-53
2020/12/10 08:14:00;;;;;;;60.85;36.38;;;;;;;;;;5002605;28;20030;-52
2020/12/10 08:16:43;;;;;;;81.68;50.05;;;;;;;;;;5014752;28;20037;-50
2020/12/10 08:19:17;;;;;;;73.88;47.25;;;;;;;;;;5014839;28;20030;-53
2020/12/10 08:21:43;;;;;;;86.13;53.30;;;;;;;;;;5014202;28;20014;-53
2020/12/10 08:24:10;;;;;;;79.55;50.60;;;;;;;;;;5014205;28;20528;-49
2020/12/10 08:26:36;;;;;;;96.07;58.53;;;;;;;;;;5013674;28;20026;-51
2020/12/10 08:29:02;;;;;;;107.25;61.72;;;;;;;;;;5014647;28;20084;-52
2020/12/10 08:31:29;;;;;;;74.03;42.17;;;;;;;;;;5014717;28;20599;-53
2020/12/10 08:33:56;;;;;;;70.07;41.05;;;;;;;;;;5014229;28;20026;-52
2020/12/10 08:36:34;;;;;;;61.17;37.28;;;;;;;;;;5014507;28;20029;-52
2020/12/10 08:39:04;;;;;;;41.70;26.02;;;;;;;;;;5014161;28;20481;-54
2020/12/10 08:41:34;;;;;;;29.40;18.80;;;;;;;;;;5014568;28;20064;-53
2020/12/10 08:44:05;;;;;;;29.55;19.08;;;;;;;;;;5014426;28;20058;-54
2020/12/10 08:46:31;;;;;;;15.80;9.68;;;;;;;;;;5014394;28;20033;-53
2020/12/10 08:49:14;;;;;;;13.07;8.95;;;;;;;;;;5014199;28;20097;-53
2020/12/10 08:51:42;;;;;;;29.02;16.77;;;;;;;;;;5014232;28;20036;-53
2020/12/10 08:54:08;;;;;;;16.75;10.70;;;;;;;;;;5013737;28;20053;-53
2020/12/10 08:56:36;;;;;;;14.00;9.30;;;;;;;;;;5012824;28;20030;-53
2020/12/10 08:59:03;;;;;;;27.83;16.40;;;;;;;;;;5013824;28;20037;-53
2020/12/10 09:01:29;;;;;;;15.63;10.07;;;;;;;;;;5013965;28;20030;-53
2020/12/10 09:03:55;;;;;;;23.45;13.77;;;;;;;;;;5013733;28;20025;-53
2020/12/10 09:06:23;;;;;;;52.28;32.50;;;;;;;;;;5013701;28;20025;-55
2020/12/10 09:08:51;;;;;;;50.50;29.70;;;;;;;;;;5012331;28;20472;-53
2020/12/10 09:11:17;;;;;;;67.30;36.08;;;;;;;;;;5013434;28;20042;-54
2020/12/10 09:13:43;;;;;;;30.45;18.92;;;;;;;;;;5013012;28;20022;-54
2020/12/10 09:16:10;;;;;;;167.65;97.35;;;;;;;;;;5013838;28;20030;-55
2020/12/10 09:18:36;;;;;;;55.05;33.05;;;;;;;;;;5012359;28;20444;-54
2020/12/10 09:21:02;;;;;;;102.57;61.70;;;;;;;;;;5013734;28;20025;-54
2020/12/10 09:23:28;;;;;;;180.15;125.55;;;;;;;;;;5013395;28;20048;-54
2020/12/10 09:25:54;;;;;;;106.95;72.47;;;;;;;;;;5013590;28;20397;-54
2020/12/10 09:28:20;;;;;;;90.03;59.28;;;;;;;;;;5013537;28;20033;-54
2020/12/10 09:30:46;;;;;;;49.80;31.70;;;;;;;;;;5013888;28;20019;-51
2020/12/10 09:33:13;;;;;;;65.43;41.92;;;;;;;;;;5013400;28;20052;-54
2020/12/10 09:35:39;;;;;;;50.78;33.22;;;;;;;;;;5013376;28;20018;-54
2020/12/10 09:38:05;;;;;;;44.85;30.30;;;;;;;;;;5012818;28;20044;-54
2020/12/10 09:40:32;;;;;;;57.72;42.15;;;;;;;;;;5013117;28;20018;-54
2020/12/10 09:42:58;;;;;;;59.88;42.67;;;;;;;;;;5012371;28;20037;-55
2020/12/10 09:45:24;;;;;;;59.60;43.25;;;;;;;;;;5013323;28;20026;-53
2020/12/10 09:47:50;;;;;;;51.22;37.17;;;;;;;;;;5012764;28;20029;-54
2020/12/10 09:50:23;;;;;;;38.28;30.90;;;;;;;;;;5013215;28;20465;-54
2020/12/10 09:52:58;;;;;;;48.55;36.58;;;;;;;;;;5012853;28;20466;-54
2020/12/10 09:58:02;;;;;;;74.78;59.00;;;;;;;;;;5012896;28;20042;-55
2020/12/10 10:00:29;;;;;;;51.10;39.58;;;;;;;;;;5012691;28;20108;-53
2020/12/10 10:02:55;;;;;;;77.07;59.63;;;;;;;;;;5012878;28;20424;-55
2020/12/10 10:05:21;;;;;;;63.70;51.15;;;;;;;;;;5012720;28;20480;-55
2020/12/10 10:07:47;;;;;;;50.10;40.55;;;;;;;;;;5012602;28;20037;-54
2020/12/10 10:10:13;;;;;;;29.90;22.80;;;;;;;;;;5012861;28;20053;-57
2020/12/10 10:12:39;;;;;;;55.17;43.70;;;;;;;;;;5012923;28;20481;-57
2020/12/10 10:15:05;;;;;;;30.50;23.52;;;;;;;;;;5013239;28;20025;-57
2020/12/10 10:17:31;;;;;;;16.90;14.07;;;;;;;;;;5012983;28;20030;-58
2020/12/10 10:19:57;;;;;;;31.70;24.50;;;;;;;;;;5012279;28;20062;-56
2020/12/10 10:22:25;;;;;;;33.60;26.45;;;;;;;;;;5012612;28;20097;-57
2020/12/10 10:24:51;;;;;;;49.67;34.10;;;;;;;;;;5012409;28;20026;-57
2020/12/10 10:27:17;;;;;;;49.67;34.67;;;;;;;;;;5012874;28;20018;-57
2020/12/10 10:29:43;;;;;;;72.25;52.83;;;;;;;;;;5028186;28;20069;-57
2020/12/10 10:32:09;;;;;;;32.78;25.52;;;;;;;;;;5027893;28;20030;-57
2020/12/10 10:34:37;;;;;;;27.83;22.77;;;;;;;;;;5012484;28;20030;-57
2020/12/10 10:37:03;;;;;;;29.42;23.30;;;;;;;;;;5012323;28;20469;-57
2020/12/10 10:39:29;;;;;;;39.70;33.17;;;;;;;;;;5012329;28;20426;-56
2020/12/10 10:41:55;;;;;;;30.73;26.45;;;;;;;;;;5012359;28;20465;-56
2020/12/10 10:44:21;;;;;;;34.25;28.08;;;;;;;;;;5012637;28;20037;-57
2020/12/10 10:46:47;;;;;;;35.83;27.40;;;;;;;;;;5012543;28;20076;-57
2020/12/10 10:49:16;;;;;;;30.33;23.42;;;;;;;;;;5014015;28;20595;-56
2020/12/10 10:51:42;;;;;;;29.30;23.83;;;;;;;;;;5016656;28;20026;-56
2020/12/10 10:54:08;;;;;;;52.65;41.72;;;;;;;;;;5016354;28;20054;-56
2020/12/10 10:56:34;;;;;;;40.95;34.47;;;;;;;;;;5016437;28;20034;-57
2020/12/10 10:59:00;;;;;;;27.45;21.65;;;;;;;;;;5016275;28;20038;-55
2020/12/10 11:01:27;;;;;;;27.10;20.13;;;;;;;;;;5016339;28;20030;-55
2020/12/10 11:03:53;;;;;;;25.20;19.48;;;;;;;;;;5016062;28;20026;-56
2020/12/10 11:06:19;;;;;;;28.65;19.17;;;;;;;;;;5016385;28;20041;-56
2020/12/10 11:08:45;;;;;;;32.20;22.52;;;;;;;;;;5016051;28;20029;-56
2020/12/10 11:11:11;;;;;;;47.45;32.90;;;;;;;;;;5015991;28;20421;-56
2020/12/10 11:13:37;;;;;;;58.45;38.70;;;;;;;;;;5016386;28;20022;-56
2020/12/10 11:16:03;;;;;;;52.60;38.95;;;;;;;;;;5016084;28;20033;-56
2020/12/10 11:18:29;;;;;;;54.72;43.50;;;;;;;;;;5015970;28;20044;-56
2020/12/10 11:20:56;;;;;;;55.22;39.10;;;;;;;;;;5016013;28;20513;-55
2020/12/10 11:23:22;;;;;;;55.85;42.97;;;;;;;;;;5015479;28;20033;-56
2020/12/10 11:25:48;;;;;;;38.88;27.45;;;;;;;;;;5016076;28;20021;-55
2020/12/10 11:28:14;;;;;;;35.78;24.58;;;;;;;;;;5015850;28;20040;-55
2020/12/10 11:30:40;;;;;;;61.60;47.78;;;;;;;;;;5015925;28;20018;-55
2020/12/10 11:33:06;;;;;;;113.00;82.90;;;;;;;;;;5014688;28;20532;-55
2020/12/10 11:35:32;;;;;;;86.85;60.70;;;;;;;;;;5015577;28;20113;-55
2020/12/10 11:37:59;;;;;;;92.45;67.03;;;;;;;;;;5015466;28;20057;-55
2020/12/10 11:40:25;;;;;;;84.18;58.92;;;;;;;;;;5015490;28;20076;-55
2020/12/10 11:42:51;;;;;;;101.47;72.93;;;;;;;;;;5015823;28;20381;-55
2020/12/10 11:45:19;;;;;;;101.07;69.35;;;;;;;;;;5015348;28;20417;-55
2020/12/10 11:47:49;;;;;;;156.70;96.28;;;;;;;;;;5015470;28;20025;-54
2020/12/10 11:50:18;;;;;;;167.50;110.75;;;;;;;;;;5015275;28;20018;-54
2020/12/10 11:52:49;;;;;;;136.18;89.95;;;;;;;;;;5015560;28;20099;-53
2020/12/10 11:55:15;;;;;;;167.60;110.97;;;;;;;;;;5015503;28;20018;-54
2020/12/10 11:57:41;;;;;;;142.68;98.97;;;;;;;;;;5015224;28;20080;-54
2020/12/10 12:00:09;;;;;;;136.27;92.93;;;;;;;;;;5014915;28;20092;-54
2020/12/10 12:02:35;;;;;;;162.43;108.28;;;;;;;;;;5015503;28;20029;-54
2020/12/10 12:05:02;;;;;;;155.60;105.10;;;;;;;;;;5014769;28;20477;-54
2020/12/10 12:07:28;;;;;;;238.00;151.57;;;;;;;;;;5015134;28;20103;-54
2020/12/10 12:09:54;;;;;;;174.02;115.60;;;;;;;;;;5014506;28;20050;-54
2020/12/10 12:12:20;;;;;;;166.98;113.80;;;;;;;;;;5015095;28;20026;-54
2020/12/10 12:14:46;;;;;;;264.30;177.45;;;;;;;;;;5014842;28;20022;-54
2020/12/10 12:17:12;;;;;;;215.77;142.35;;;;;;;;;;5014783;28;20057;-54
2020/12/10 12:19:38;;;;;;;142.23;95.40;;;;;;;;;;5014739;28;20091;-54
2020/12/10 12:22:05;;;;;;;93.32;65.20;;;;;;;;;;5014958;28;20033;-54
2020/12/10 12:24:31;;;;;;;119.43;83.75;;;;;;;;;;5014645;28;20113;-54
2020/12/10 12:26:57;;;;;;;127.40;88.63;;;;;;;;;;5014750;28;20049;-53
2020/12/10 12:29:23;;;;;;;111.32;74.07;;;;;;;;;;5014850;28;20412;-55
2020/12/10 12:31:49;;;;;;;70.85;49.35;;;;;;;;;;5014585;28;20116;-55
2020/12/10 12:34:15;;;;;;;51.30;36.13;;;;;;;;;;5014756;28;20121;-53
2020/12/10 12:36:42;;;;;;;54.42;39.65;;;;;;;;;;5014627;28;20022;-54
2020/12/10 12:39:13;;;;;;;39.40;26.10;;;;;;;;;;5014462;28;20064;-54
2020/12/10 12:41:39;;;;;;;39.37;27.63;;;;;;;;;;5014751;28;20018;-54
2020/12/10 12:44:05;;;;;;;56.80;38.13;;;;;;;;;;5014410;28;20109;-54
2020/12/10 12:46:31;;;;;;;39.33;26.45;;;;;;;;;;5014277;28;20054;-55
2020/12/10 12:48:57;;;;;;;42.60;27.20;;;;;;;;;;5014368;28;20022;-54
2020/12/10 12:51:23;;;;;;;45.45;32.38;;;;;;;;;;5012932;28;20038;-56
2020/12/10 12:53:52;;;;;;;50.83;35.35;;;;;;;;;;5014032;28;20034;-54
2020/12/10 12:56:19;;;;;;;103.15;73.07;;;;;;;;;;5014209;28;20108;-54
2020/12/10 12:58:48;;;;;;;139.75;97.22;;;;;;;;;;5013859;28;20172;-54
2020/12/10 13:01:15;;;;;;;128.02;90.10;;;;;;;;;;5013377;28;20034;-53
2020/12/10 13:03:41;;;;;;;118.85;82.30;;;;;;;;;;5014150;28;20026;-54
2020/12/10 13:06:10;;;;;;;114.55;78.72;;;;;;;;;;5013998;28;20873;-54
2020/12/10 13:08:36;;;;;;;108.03;73.38;;;;;;;;;;5013364;28;20026;-55
2020/12/10 13:11:02;;;;;;;120.13;82.40;;;;;;;;;;5013205;28;20401;-54
2020/12/10 13:13:28;;;;;;;65.38;46.95;;;;;;;;;;5013023;28;20026;-55
2020/12/10 13:15:54;;;;;;;76.30;50.20;;;;;;;;;;5013461;28;20029;-54
2020/12/10 13:18:20;;;;;;;47.60;32.67;;;;;;;;;;5013582;28;20033;-54
2020/12/10 13:20:46;;;;;;;49.78;32.90;;;;;;;;;;5013811;28;20072;-53
2020/12/10 13:23:12;;;;;;;111.07;75.88;;;;;;;;;;5013639;28;20030;-54
2020/12/10 13:25:38;;;;;;;152.45;105.32;;;;;;;;;;5013323;28;20014;-54
2020/12/10 13:28:04;;;;;;;145.35;102.55;;;;;;;;;;5013298;28;20696;-52
2020/12/10 13:30:30;;;;;;;129.57;88.88;;;;;;;;;;5012941;28;20018;-53
2020/12/10 13:32:56;;;;;;;358.00;152.95;;;;;;;;;;5013049;28;20545;-51
2020/12/10 13:35:22;;;;;;;663.28;287.20;;;;;;;;;;5012627;28;20481;-52
2020/12/10 13:37:48;;;;;;;447.10;206.50;;;;;;;;;;5012506;28;20033;-55
2020/12/10 13:40:14;;;;;;;219.50;133.98;;;;;;;;;;5012962;28;20485;-53
2020/12/10 13:42:41;;;;;;;139.32;93.90;;;;;;;;;;5012913;28;20534;-53
2020/12/10 13:45:07;;;;;;;147.23;99.80;;;;;;;;;;5012834;28;20032;-52
2020/12/10 13:47:35;;;;;;;152.98;103.60;;;;;;;;;;5012160;28;20104;-53
2020/12/10 13:50:01;;;;;;;155.85;104.45;;;;;;;;;;5012421;28;20105;-51
2020/12/10 13:52:27;;;;;;;160.60;104.00;;;;;;;;;;5009342;28;20029;-54
2020/12/10 13:54:53;;;;;;;154.57;99.78;;;;;;;;;;5012242;28;20556;-54
2020/12/10 13:57:20;;;;;;;147.45;97.00;;;;;;;;;;5011350;28;20492;-52
2020/12/10 13:59:46;;;;;;;139.57;92.88;;;;;;;;;;5012479;28;20041;-57
2020/12/10 14:02:16;;;;;;;135.00;89.90;;;;;;;;;;5012089;28;20477;-53
2020/12/10 14:04:42;;;;;;;143.27;99.18;;;;;;;;;;5012674;28;20092;-53
2020/12/10 14:07:08;;;;;;;174.45;114.85;;;;;;;;;;5012347;28;20114;-53
2020/12/10 14:09:34;;;;;;;148.23;96.07;;;;;;;;;;5011895;28;20069;-54
2020/12/10 14:12:00;;;;;;;135.25;92.03;;;;;;;;;;5011143;28;20117;-54
2020/12/10 14:14:28;;;;;;;138.00;90.05;;;;;;;;;;5011323;28;20029;-55
2020/12/10 14:16:54;;;;;;;131.82;88.20;;;;;;;;;;5012016;28;20030;-53